Time;durP1;ratioP1;P1;durP2;ratioP2;P2;SDS_P1;SDS_P2;PMS_P1;PMS_P2;Temp;Humidity;BMP_temperature;BMP_pressure;BME280_temperature;BME280_humidity;BME280_pressure;Samples;Min_cycle;Max_cycle;Signal;HPM_P1;HPM_P2
2022/07/14 00:01:37;;;;;;;10.83;2.60;;;;;;;16.22;83.93;101927.88;5100944;27;20039;-86
2022/07/14 00:04:03;;;;;;;15.18;3.00;;;;;;;16.19;83.45;101925.59;5117826;27;20398;-86
2022/07/14 00:06:29;;;;;;;11.07;2.35;;;;;;;16.16;83.93;101930.69;5117795;27;20035;-85
2022/07/14 00:08:54;;;;;;;16.10;2.50;;;;;;;16.14;84.63;101942.72;5117693;27;20372;-85
2022/07/14 00:11:19;;;;;;;11.53;2.57;;;;;;;16.12;84.87;101944.00;5152109;27;20485;-85
2022/07/14 00:13:45;;;;;;;7.07;2.50;;;;;;;16.10;85.26;101940.66;5084179;27;20160;-86
2022/07/14 00:16:10;;;;;;;12.30;3.17;;;;;;;16.08;84.95;101921.72;5117859;27;20482;-85
2022/07/14 00:18:43;;;;;;;14.20;3.00;;;;;;;16.13;84.01;101908.16;5100604;27;20035;-86
2022/07/14 00:21:09;;;;;;;15.90;2.60;;;;;;;16.20;83.69;101904.56;5101198;27;20084;-86
2022/07/14 00:23:34;;;;;;;14.73;3.40;;;;;;;16.22;83.99;101897.75;5117663;27;20123;-85
2022/07/14 00:26:00;;;;;;;11.50;2.83;;;;;;;16.27;83.73;101892.44;5100538;27;20127;-85
2022/07/14 00:28:25;;;;;;;11.57;2.63;;;;;;;16.31;83.66;101892.81;5135536;27;20031;-85
2022/07/14 00:30:52;;;;;;;13.40;2.70;;;;;;;16.30;83.97;101894.72;5135496;27;20028;-86
2022/07/14 00:33:17;;;;;;;7.82;2.30;;;;;;;16.35;84.26;101910.47;5135645;27;20034;-86
2022/07/14 00:35:43;;;;;;;13.87;3.27;;;;;;;16.36;83.70;101922.25;5117297;27;20027;-85
2022/07/14 00:38:08;;;;;;;16.03;3.33;;;;;;;16.34;83.53;101919.75;5100889;27;20340;-85
2022/07/14 00:40:33;;;;;;;12.80;3.57;;;;;;;16.31;83.88;101912.84;5116937;27;20326;-86
2022/07/14 00:42:59;;;;;;;12.47;3.20;;;;;;;16.31;84.05;101921.06;5100209;27;20035;-86
2022/07/14 00:45:26;;;;;;;14.20;3.30;;;;;;;16.31;84.04;101912.84;5099734;27;20027;-85
2022/07/14 00:47:51;;;;;;;15.10;3.35;;;;;;;16.35;83.88;101920.59;5117813;27;20043;-85
2022/07/14 00:50:18;;;;;;;15.20;3.13;;;;;;;16.29;83.59;101914.97;5116702;27;20398;-85
2022/07/14 00:52:46;;;;;;;13.33;3.20;;;;;;;16.25;84.05;101908.25;5100903;27;20276;-85
2022/07/14 00:55:12;;;;;;;13.13;2.90;;;;;;;16.24;83.81;101911.22;5116965;27;20590;-85
2022/07/14 00:57:38;;;;;;;9.50;2.90;;;;;;;16.24;84.72;101911.22;5135376;27;20031;-85
2022/07/14 01:00:06;;;;;;;9.90;3.30;;;;;;;16.24;84.07;101923.03;5099817;27;20081;-85
2022/07/14 01:02:32;;;;;;;10.23;3.00;;;;;;;16.24;83.91;101909.34;5117566;27;20057;-85
2022/07/14 01:04:57;;;;;;;20.40;3.50;;;;;;;16.29;84.49;101917.69;5116769;27;20023;-86
2022/07/14 01:07:23;;;;;;;18.88;4.07;;;;;;;16.28;84.62;101923.41;5116666;27;20083;-85
2022/07/14 01:09:48;;;;;;;8.30;3.00;;;;;;;16.29;85.00;101927.81;5151167;27;20118;-85
2022/07/14 01:12:14;;;;;;;11.13;3.80;;;;;;;16.28;85.14;101932.47;5099827;27;20496;-85
2022/07/14 01:14:41;;;;;;;8.73;3.00;;;;;;;16.31;84.99;101942.13;5135195;27;20030;-85
2022/07/14 01:17:07;;;;;;;13.90;3.50;;;;;;;16.29;84.36;101934.13;5117019;27;20054;-86
2022/07/14 01:19:33;;;;;;;9.37;2.93;;;;;;;16.30;85.15;101935.81;5116896;27;20065;-85
2022/07/14 01:21:59;;;;;;;14.23;3.63;;;;;;;16.29;84.87;101942.34;5116765;27;20467;-85
2022/07/14 01:24:26;;;;;;;8.63;3.28;;;;;;;16.28;85.21;101948.03;5116411;27;20035;-86
2022/07/14 01:26:52;;;;;;;12.57;3.47;;;;;;;16.24;85.67;101941.34;5116685;27;20038;-86
2022/07/14 01:29:18;;;;;;;16.93;3.60;;;;;;;16.26;84.99;101940.06;5082730;28;20390;-86
2022/07/14 01:31:44;;;;;;;16.35;3.97;;;;;;;16.25;84.44;101940.28;5116419;28;20031;-85
2022/07/14 01:34:10;;;;;;;12.30;3.25;;;;;;;16.20;84.55;101946.44;5150326;27;20438;-85
2022/07/14 01:36:35;;;;;;;15.87;3.40;;;;;;;16.27;84.43;101951.88;5116668;28;20027;-86
2022/07/14 01:39:03;;;;;;;18.50;3.37;;;;;;;16.25;84.50;101945.75;5116436;28;20015;-86
2022/07/14 01:41:29;;;;;;;10.43;2.80;;;;;;;16.24;84.85;101947.69;5117460;28;20055;-86
2022/07/14 01:43:55;;;;;;;14.43;3.28;;;;;;;16.25;84.61;101946.59;5134702;28;20058;-86
2022/07/14 01:46:21;;;;;;;14.45;3.42;;;;;;;16.27;84.58;101938.19;5116497;28;20095;-85
2022/07/14 01:48:46;;;;;;;12.03;3.43;;;;;;;16.25;84.29;101941.13;5116214;28;20067;-85
2022/07/14 01:51:12;;;;;;;11.67;3.10;;;;;;;16.22;84.46;101940.75;5116385;28;20043;-85
2022/07/14 01:53:37;;;;;;;13.63;3.38;;;;;;;16.20;84.77;101943.72;5116163;28;20030;-85
2022/07/14 01:56:03;;;;;;;15.60;3.40;;;;;;;16.16;84.01;101930.69;5116789;28;20019;-85
2022/07/14 01:58:28;;;;;;;16.63;4.57;;;;;;;16.17;84.75;101924.16;5115941;28;20076;-85
2022/07/14 02:03:38;;;;;;;14.90;3.37;;;;;;;16.10;84.20;101927.78;5119474;28;20620;-86
2022/07/14 02:06:05;;;;;;;9.80;3.45;;;;;;;16.07;84.43;101922.78;5115891;28;20035;-85
2022/07/14 02:08:30;;;;;;;16.20;3.58;;;;;;;16.06;84.28;101932.06;5116294;28;20024;-86
2022/07/14 02:13:40;;;;;;;20.48;3.72;;;;;;;15.88;84.72;101937.50;5118656;28;20496;-85
2022/07/14 02:16:05;;;;;;;13.70;3.03;;;;;;;15.82;84.79;101933.75;5082183;28;20023;-86
2022/07/14 02:18:31;;;;;;;11.50;3.50;;;;;;;15.76;85.60;101924.50;5116297;28;20023;-85
2022/07/14 02:20:57;;;;;;;12.03;2.87;;;;;;;15.72;85.69;101927.91;5115834;28;20747;-86
2022/07/14 02:23:23;;;;;;;16.47;3.10;;;;;;;15.70;86.27;101924.56;5098843;28;20035;-85
2022/07/14 02:25:49;;;;;;;14.02;3.35;;;;;;;15.68;86.26;101943.09;5115761;28;20027;-85
2022/07/14 02:28:14;;;;;;;9.95;3.00;;;;;;;15.65;86.07;101935.34;5099375;28;20038;-85
2022/07/14 02:30:40;;;;;;;14.20;3.63;;;;;;;15.58;86.06;101938.13;5115505;28;20478;-86
2022/07/14 02:33:06;;;;;;;13.65;3.70;;;;;;;15.52;85.94;101931.66;5150605;27;20054;-85
2022/07/14 02:35:31;;;;;;;13.93;3.57;;;;;;;15.48;86.57;101927.69;5116384;28;20034;-85
2022/07/14 02:37:57;;;;;;;11.93;3.27;;;;;;;15.45;86.81;101919.91;5081862;28;20471;-85
2022/07/14 02:40:22;;;;;;;18.20;3.85;;;;;;;15.36;87.01;101910.31;5115956;28;20031;-85
2022/07/14 02:42:48;;;;;;;11.87;3.20;;;;;;;15.28;87.30;101916.91;5081581;28;20123;-85
2022/07/14 02:45:13;;;;;;;10.50;3.30;;;;;;;15.22;87.16;101923.22;5100754;27;20051;-85
2022/07/14 02:47:39;;;;;;;18.67;3.97;;;;;;;15.16;87.60;101918.66;5119293;27;20034;-85
2022/07/14 02:50:05;;;;;;;10.80;3.23;;;;;;;15.11;88.05;101908.38;5102091;27;20814;-85
2022/07/14 02:52:30;;;;;;;17.70;4.13;;;;;;;15.06;88.04;101900.84;5136644;27;20069;-85
2022/07/14 02:54:56;;;;;;;16.53;3.70;;;;;;;15.00;88.25;101904.47;5102349;27;20066;-85
2022/07/14 02:57:21;;;;;;;14.23;3.70;;;;;;;14.97;88.71;101906.78;5119162;27;20027;-85
2022/07/14 02:59:47;;;;;;;17.37;4.13;;;;;;;14.88;88.65;101898.84;5136074;27;20529;-85
2022/07/14 03:02:12;;;;;;;12.75;3.70;;;;;;;14.85;89.20;101909.34;5136069;27;20034;-85
2022/07/14 03:04:38;;;;;;;12.00;3.73;;;;;;;14.80;89.58;101907.28;5101938;27;20039;-85
2022/07/14 03:07:03;;;;;;;11.87;3.43;;;;;;;14.79;89.72;101907.50;5119790;27;20035;-85
2022/07/14 03:09:28;;;;;;;15.20;4.10;;;;;;;14.77;90.01;101898.69;5102371;27;20417;-85
2022/07/14 03:11:54;;;;;;;15.68;3.83;;;;;;;14.69;90.00;101899.75;5153253;27;20038;-85
2022/07/14 03:14:19;;;;;;;16.03;3.63;;;;;;;14.69;90.30;101895.16;5085255;27;20142;-85
2022/07/14 03:16:45;;;;;;;14.83;3.87;;;;;;;14.65;90.24;101891.19;5136845;27;20028;-85
2022/07/14 03:19:10;;;;;;;19.80;3.40;;;;;;;14.58;90.44;101882.16;5101784;27;20031;-85
2022/07/14 03:21:36;;;;;;;12.63;3.77;;;;;;;14.57;90.58;101880.47;5118931;27;20023;-85
2022/07/14 03:24:01;;;;;;;14.40;4.15;;;;;;;14.53;90.87;101873.78;5118027;27;20046;-85
2022/07/14 03:26:29;;;;;;;16.07;4.17;;;;;;;14.51;90.94;101875.88;5119058;27;20031;-85
2022/07/14 03:28:54;;;;;;;21.50;4.25;;;;;;;14.48;91.13;101882.63;5101805;27;20108;-85
2022/07/14 03:31:20;;;;;;;19.40;4.18;;;;;;;14.47;91.44;101885.56;5136613;27;20471;-85
2022/07/14 03:33:45;;;;;;;12.83;4.23;;;;;;;14.45;91.50;101885.75;5137035;27;20118;-85
2022/07/14 03:36:12;;;;;;;20.17;4.43;;;;;;;14.44;91.53;101881.38;5118260;27;20375;-85
2022/07/14 03:38:37;;;;;;;17.42;5.07;;;;;;;14.42;91.34;101883.47;5101039;27;20538;-85
2022/07/14 03:41:04;;;;;;;15.27;4.00;;;;;;;14.36;91.39;101873.41;5136715;27;20111;-85
2022/07/14 03:43:29;;;;;;;13.88;4.05;;;;;;;14.36;91.50;101874.28;5102037;27;20437;-85
2022/07/14 03:45:55;;;;;;;15.23;4.17;;;;;;;14.35;91.77;101883.50;5118235;27;20034;-85
2022/07/14 03:48:21;;;;;;;14.23;4.40;;;;;;;14.34;91.99;101879.09;5101186;27;20284;-85
2022/07/14 03:50:50;;;;;;;17.88;4.50;;;;;;;14.30;92.17;101883.28;5136018;27;20400;-85
2022/07/14 03:53:15;;;;;;;16.80;4.60;;;;;;;14.31;92.00;101900.53;5118018;27;20118;-85
2022/07/14 03:55:44;;;;;;;17.10;4.32;;;;;;;14.29;92.40;101900.75;5117674;27;20122;-85
2022/07/14 03:58:10;;;;;;;15.27;4.03;;;;;;;14.30;92.09;101904.31;5152344;27;20027;-85
2022/07/14 04:00:35;;;;;;;20.23;4.20;;;;;;;14.32;92.08;101915.84;5118293;27;20033;-85
2022/07/14 04:03:00;;;;;;;11.90;3.70;;;;;;;14.33;91.86;101906.59;5117625;27;20031;-85
2022/07/14 04:05:26;;;;;;;16.27;4.87;;;;;;;14.32;92.21;101913.97;5118557;27;20450;-85
2022/07/14 04:07:51;;;;;;;15.13;4.20;;;;;;;14.31;92.25;101920.47;5117447;27;20541;-85
2022/07/14 04:10:17;;;;;;;18.77;4.37;;;;;;;14.32;92.05;101908.50;5117920;27;20284;-85
2022/07/14 04:12:44;;;;;;;17.42;4.82;;;;;;;14.32;91.95;101910.38;5118250;27;20071;-85
2022/07/14 04:15:10;;;;;;;17.10;4.50;;;;;;;14.33;92.38;101907.44;5117874;27;20085;-85
2022/07/14 04:17:36;;;;;;;13.50;4.25;;;;;;;14.38;92.49;101909.53;5135968;27;20031;-85
2022/07/14 04:20:02;;;;;;;15.00;4.43;;;;;;;14.38;92.25;101907.66;5100390;27;20088;-85
2022/07/14 04:22:27;;;;;;;18.20;4.18;;;;;;;14.40;93.19;101912.88;5135831;27;20031;-85
2022/07/14 04:24:53;;;;;;;16.83;5.17;;;;;;;14.40;93.07;101901.97;5118204;27;20459;-85
2022/07/14 04:27:19;;;;;;;12.40;4.20;;;;;;;14.44;93.28;101911.41;5135835;27;20393;-85
2022/07/14 04:29:45;;;;;;;14.82;4.72;;;;;;;14.48;93.12;101909.06;5135791;27;20058;-85
2022/07/14 04:32:10;;;;;;;16.50;4.85;;;;;;;14.48;92.18;101903.63;5135723;27;20054;-85
2022/07/14 04:34:36;;;;;;;17.33;5.40;;;;;;;14.52;92.20;101904.88;5118043;27;20084;-85
2022/07/14 04:37:02;;;;;;;16.45;5.30;;;;;;;14.55;92.41;101907.16;5117473;27;20463;-85
2022/07/14 04:39:27;;;;;;;15.80;5.70;;;;;;;14.61;91.78;101917.25;5117362;27;20424;-85
2022/07/14 04:41:52;;;;;;;13.07;5.27;;;;;;;14.62;91.70;101909.91;5117503;27;20110;-85
2022/07/14 04:44:18;;;;;;;19.10;5.10;;;;;;;14.63;91.85;101895.19;5134129;27;20081;-85
2022/07/14 04:46:43;;;;;;;18.38;5.15;;;;;;;14.68;91.84;101893.47;5083953;27;20083;-85
2022/07/14 04:52:02;;;;;;;15.32;5.07;;;;;;;14.74;91.53;101889.03;5135679;27;20077;-85
2022/07/14 04:54:28;;;;;;;16.83;4.75;;;;;;;14.76;90.76;101886.09;5101162;27;20043;-85
2022/07/14 04:56:53;;;;;;;15.77;4.73;;;;;;;14.79;90.23;101889.22;5100030;27;20027;-85
2022/07/14 04:59:19;;;;;;;15.63;4.70;;;;;;;14.84;89.99;101897.59;5083137;27;20027;-85
2022/07/14 05:01:44;;;;;;;15.77;4.83;;;;;;;14.89;89.87;101895.03;5099856;27;20106;-85
2022/07/14 05:04:09;;;;;;;12.43;4.63;;;;;;;14.97;90.30;101906.78;5099691;27;20031;-85
2022/07/14 05:06:35;;;;;;;17.27;5.30;;;;;;;15.00;89.39;101911.78;5082755;27;20399;-85
2022/07/14 05:09:01;;;;;;;27.60;5.38;;;;;;;15.02;88.83;101920.63;5132894;27;20100;-85
2022/07/14 05:11:26;;;;;;;17.77;4.73;;;;;;;15.06;88.81;101916.41;5116815;27;20386;-85
2022/07/14 05:13:55;;;;;;;14.20;4.80;;;;;;;15.11;88.74;101924.78;5116521;27;20114;-85
2022/07/14 05:16:21;;;;;;;15.40;4.93;;;;;;;15.14;88.48;101924.34;5099949;27;20100;-85
2022/07/14 05:18:47;;;;;;;20.40;4.82;;;;;;;15.21;88.25;101927.03;5134764;27;20483;-85
2022/07/14 05:21:13;;;;;;;17.20;4.82;;;;;;;15.23;87.53;101909.34;5115877;27;20072;-85
2022/07/14 05:23:38;;;;;;;16.43;5.20;;;;;;;15.27;87.62;101917.94;5099415;27;20398;-85
2022/07/14 05:26:10;;;;;;;17.13;5.15;;;;;;;15.32;87.56;101906.34;5116378;27;20027;-85
2022/07/14 05:28:35;;;;;;;14.68;4.97;;;;;;;15.33;87.55;101906.13;5117234;28;20088;-85
2022/07/14 05:31:01;;;;;;;16.07;4.93;;;;;;;15.38;86.43;101913.66;5099909;28;20043;-85
2022/07/14 05:33:26;;;;;;;17.57;5.20;;;;;;;15.40;86.51;101901.44;5151213;27;20035;-90
2022/07/14 05:35:52;;;;;;;16.13;5.07;;;;;;;15.40;85.76;101903.34;5116678;28;20055;-89
2022/07/14 05:38:17;;;;;;;17.07;4.43;;;;;;;15.46;86.30;101904.34;5099508;28;20023;-91
2022/07/14 05:40:42;;;;;;;19.10;4.60;;;;;;;15.53;85.61;101907.88;5101737;28;20707;-90
2022/07/14 05:43:08;;;;;;;21.33;5.50;;;;;;;15.58;85.67;101908.03;5099964;28;20036;-91
2022/07/14 05:45:33;;;;;;;18.43;4.90;;;;;;;15.61;85.29;101905.69;5116619;28;20031;-89
2022/07/14 05:47:59;;;;;;;17.60;4.73;;;;;;;15.78;84.55;101913.34;5116742;28;20027;-89
2022/07/14 05:50:25;;;;;;;21.40;5.00;;;;;;;15.76;83.89;101913.56;5099451;28;20289;-89
2022/07/14 05:52:50;;;;;;;15.15;5.07;;;;;;;15.82;83.79;101914.59;5082884;28;20031;-87
2022/07/14 05:55:16;;;;;;;24.03;5.87;;;;;;;15.83;83.74;101902.59;5098834;28;20297;-87
2022/07/14 05:57:41;;;;;;;20.40;5.00;;;;;;;15.88;83.24;101908.22;5134928;28;20042;-86
2022/07/14 06:00:07;;;;;;;16.60;4.77;;;;;;;15.92;83.61;101903.97;5150815;27;20031;-86
2022/07/14 06:02:34;;;;;;;19.83;5.68;;;;;;;15.93;83.25;101897.44;5098650;28;20172;-86
2022/07/14 06:04:59;;;;;;;17.33;5.30;;;;;;;15.98;83.11;101902.25;5116226;28;20066;-87
2022/07/14 06:07:24;;;;;;;15.23;4.70;;;;;;;16.04;82.25;101905.97;5099169;28;20493;-86
2022/07/14 06:09:50;;;;;;;18.83;5.10;;;;;;;16.12;81.70;101912.00;5134833;28;20368;-87
2022/07/14 06:12:16;;;;;;;17.70;5.00;;;;;;;16.21;81.60;101903.47;5116367;28;20033;-87
2022/07/14 06:14:43;;;;;;;18.70;4.90;;;;;;;16.31;81.12;101907.38;5134011;28;20028;-87
2022/07/14 06:17:09;;;;;;;18.30;4.60;;;;;;;16.43;80.77;101918.41;5134856;28;20031;-87
2022/07/14 06:19:34;;;;;;;15.60;4.32;;;;;;;16.58;80.69;101912.53;5134937;27;20038;-86
2022/07/14 06:22:03;;;;;;;15.60;4.43;;;;;;;16.66;78.95;101905.88;5102735;27;20119;-86
2022/07/14 06:24:29;;;;;;;21.10;4.65;;;;;;;16.77;79.24;101894.16;5102086;27;20070;-87
2022/07/14 06:26:54;;;;;;;15.43;4.03;;;;;;;16.86;79.51;101889.19;5102081;27;20027;-86
2022/07/14 06:29:20;;;;;;;18.23;4.37;;;;;;;16.92;78.56;101893.78;5119583;27;20035;-87
2022/07/14 06:31:45;;;;;;;17.60;4.77;;;;;;;16.97;77.79;101899.38;5119397;27;20085;-86
2022/07/14 06:34:10;;;;;;;18.13;4.93;;;;;;;17.04;77.65;101904.78;5119474;27;20065;-87
2022/07/14 06:36:36;;;;;;;16.43;4.27;;;;;;;17.09;76.69;101904.06;5102486;27;20080;-87
2022/07/14 06:39:01;;;;;;;13.50;3.90;;;;;;;17.11;76.47;101912.88;5119291;27;20062;-87
2022/07/14 06:41:26;;;;;;;17.87;4.60;;;;;;;17.15;76.37;101900.41;5102605;27;20031;-86
2022/07/14 06:43:52;;;;;;;16.30;3.90;;;;;;;17.21;76.12;101906.84;5119284;27;20066;-86
2022/07/14 06:46:18;;;;;;;16.95;4.28;;;;;;;17.22;76.14;101916.75;5102395;27;20027;-86
2022/07/14 06:48:44;;;;;;;16.70;4.37;;;;;;;17.30;75.90;101916.41;5119062;27;20433;-87
2022/07/14 06:51:10;;;;;;;14.80;4.22;;;;;;;17.38;75.53;101916.09;5128503;27;20051;-87
2022/07/14 06:53:36;;;;;;;18.05;4.75;;;;;;;17.42;75.17;101914.56;5116757;28;20440;-87
2022/07/14 06:56:01;;;;;;;16.97;4.37;;;;;;;17.45;74.74;101905.84;5098782;28;20059;-87
2022/07/14 06:58:27;;;;;;;17.83;4.60;;;;;;;17.49;74.80;101909.78;5098799;28;20031;-87
2022/07/14 07:00:52;;;;;;;14.30;4.38;;;;;;;17.52;74.53;101903.84;5082063;28;20039;-86
2022/07/14 07:03:18;;;;;;;16.10;4.60;;;;;;;17.52;74.06;101901.09;5099805;28;20483;-87
2022/07/14 07:08:28;;;;;;;13.38;4.30;;;;;;;17.57;72.35;101900.38;5101285;28;20403;-87
2022/07/14 07:10:58;;;;;;;23.10;4.60;;;;;;;17.59;72.01;101911.94;5098747;28;20364;-87
2022/07/14 07:13:24;;;;;;;19.95;4.32;;;;;;;17.59;71.40;101905.63;5115789;27;20032;-87
2022/07/14 07:15:50;;;;;;;17.00;3.70;;;;;;;17.59;71.59;101914.69;5081326;28;20024;-87
2022/07/14 07:18:15;;;;;;;17.33;4.20;;;;;;;17.60;71.36;101904.53;5098456;28;20059;-86
2022/07/14 07:20:43;;;;;;;13.23;4.80;;;;;;;17.62;71.80;101902.41;5081454;28;20482;-86
2022/07/14 07:23:08;;;;;;;15.27;4.10;;;;;;;17.66;73.13;101898.94;5097978;28;20028;-86
2022/07/14 07:25:34;;;;;;;15.40;4.53;;;;;;;17.72;72.48;101902.66;5081088;28;20372;-86
2022/07/14 07:28:02;;;;;;;10.87;4.20;;;;;;;17.79;71.94;101895.13;5064494;28;20035;-86
2022/07/14 07:30:28;;;;;;;16.75;3.85;;;;;;;17.81;71.60;101897.66;5115557;28;20043;-86
2022/07/14 07:32:53;;;;;;;17.17;4.72;;;;;;;17.82;71.29;101896.56;5097276;28;20024;-87
2022/07/14 07:35:19;;;;;;;15.00;3.80;;;;;;;17.86;71.79;101898.59;5098878;28;20035;-86
2022/07/14 07:37:45;;;;;;;13.93;3.90;;;;;;;17.90;71.31;101898.97;5080936;28;20490;-86
2022/07/14 07:40:11;;;;;;;16.20;4.20;;;;;;;17.97;70.45;101891.47;5080789;28;20027;-86
2022/07/14 07:42:37;;;;;;;14.73;3.90;;;;;;;18.00;70.20;101882.75;5115730;28;20046;-86
2022/07/14 07:45:03;;;;;;;13.27;3.70;;;;;;;18.04;69.75;101881.19;5097792;28;20426;-86
2022/07/14 07:47:28;;;;;;;12.63;4.22;;;;;;;18.12;70.24;101877.25;5131945;27;20028;-87
2022/07/14 07:49:54;;;;;;;15.73;3.67;;;;;;;18.17;69.74;101873.75;5097460;28;20031;-87
2022/07/14 07:52:21;;;;;;;18.87;4.17;;;;;;;18.20;69.88;101871.38;5132545;27;20281;-86
2022/07/14 07:54:46;;;;;;;16.10;3.75;;;;;;;18.22;67.77;101874.72;5117787;27;20474;-86
2022/07/14 07:57:12;;;;;;;12.40;3.20;;;;;;;18.28;67.65;101880.31;5117659;27;20035;-87
2022/07/14 07:59:38;;;;;;;11.43;3.47;;;;;;;18.28;66.69;101875.66;5117704;27;20030;-86
2022/07/14 08:02:04;;;;;;;12.63;3.58;;;;;;;18.30;66.40;101870.75;5136026;27;20479;-86
2022/07/14 08:04:31;;;;;;;10.07;2.73;;;;;;;18.37;65.88;101868.69;5136535;27;20034;-87
2022/07/14 08:06:56;;;;;;;12.60;3.03;;;;;;;18.41;65.48;101858.91;5100930;27;20046;-87
2022/07/14 08:09:22;;;;;;;12.43;3.20;;;;;;;18.43;65.65;101858.66;5118347;27;20038;-86
2022/07/14 08:11:47;;;;;;;13.55;3.15;;;;;;;18.50;65.83;101861.25;5117813;27;20121;-87
2022/07/14 08:16:58;;;;;;;11.80;2.90;;;;;;;18.62;63.37;101855.75;5106745;27;20576;-87
2022/07/14 08:19:23;;;;;;;11.68;2.80;;;;;;;18.68;63.05;101843.75;5134974;27;20055;-87
2022/07/14 08:21:49;;;;;;;8.73;2.90;;;;;;;18.74;63.63;101840.03;5117505;27;20415;-86
2022/07/14 08:24:15;;;;;;;9.40;2.65;;;;;;;18.83;62.88;101843.22;5118006;27;20065;-86
2022/07/14 08:26:40;;;;;;;9.70;2.70;;;;;;;18.92;62.87;101855.50;5151803;27;20391;-86
2022/07/14 08:29:07;;;;;;;10.27;2.93;;;;;;;19.04;62.87;101850.75;5100096;27;20100;-87
2022/07/14 08:31:33;;;;;;;12.13;3.30;;;;;;;19.21;62.31;101842.53;5117323;27;20062;-86
2022/07/14 08:33:58;;;;;;;9.82;3.00;;;;;;;19.63;61.07;101849.50;5117365;27;20390;-87
2022/07/14 08:36:23;;;;;;;10.30;2.77;;;;;;;20.19;58.62;101849.50;5099862;27;20076;-87
2022/07/14 08:38:49;;;;;;;11.67;2.70;;;;;;;20.75;56.66;101845.78;5083095;27;20033;-86
2022/07/14 08:41:14;;;;;;;10.20;3.10;;;;;;;21.18;55.59;101838.44;5135306;27;20038;-87
2022/07/14 08:43:40;;;;;;;10.60;3.17;;;;;;;21.45;55.19;101852.22;5133396;27;20386;-87
2022/07/14 08:46:05;;;;;;;9.10;2.60;;;;;;;21.70;54.54;101846.06;5135749;27;20023;-87
2022/07/14 08:48:32;;;;;;;11.88;3.38;;;;;;;21.84;54.85;101851.94;5100385;27;20039;-87
2022/07/14 08:50:58;;;;;;;10.23;2.90;;;;;;;21.92;53.26;101845.06;5116228;27;20058;-87
2022/07/14 08:53:26;;;;;;;9.27;2.88;;;;;;;21.93;52.12;101843.97;5116469;27;20070;-86
2022/07/14 08:55:51;;;;;;;5.72;2.90;;;;;;;21.82;52.18;101843.09;5135793;27;20027;-87
2022/07/14 08:58:17;;;;;;;10.30;3.40;;;;;;;21.72;52.63;101848.56;5116728;27;20046;-86
2022/07/14 09:00:43;;;;;;;12.20;3.13;;;;;;;21.56;51.28;101836.56;5116733;27;20056;-87
2022/07/14 09:03:09;;;;;;;12.27;3.00;;;;;;;21.54;50.82;101839.59;5116792;27;20027;-87
2022/07/14 09:05:38;;;;;;;13.25;2.47;;;;;;;21.46;50.03;101837.28;5116489;27;20419;-86
2022/07/14 09:08:04;;;;;;;8.85;2.85;;;;;;;21.46;50.32;101839.22;5116688;27;20477;-86
2022/07/14 09:10:29;;;;;;;8.50;2.67;;;;;;;21.47;51.11;101840.91;5134586;27;20035;-86
2022/07/14 09:13:14;;;;;;;8.55;3.10;;;;;;;21.62;53.40;101831.91;5133964;27;20031;-85
2022/07/14 09:15:46;;;;;;;14.60;3.10;;;;;;;21.71;52.20;101833.06;5116337;27;20076;-85
2022/07/14 09:18:20;;;;;;;10.45;3.22;;;;;;;21.78;52.37;101836.44;5100079;27;20028;-85
2022/07/14 09:20:45;;;;;;;9.55;3.10;;;;;;;21.88;51.06;101833.72;5116022;27;20027;-85
2022/07/14 09:23:11;;;;;;;11.03;3.20;;;;;;;22.01;51.82;101826.91;5134601;27;20052;-85
2022/07/14 09:25:37;;;;;;;8.40;3.17;;;;;;;22.01;49.88;101831.56;5116018;27;20038;-85
2022/07/14 09:28:04;;;;;;;8.43;2.90;;;;;;;22.13;49.40;101836.88;5116327;28;20114;-85
2022/07/14 09:30:31;;;;;;;10.52;3.20;;;;;;;22.38;48.02;101827.88;5134369;27;20114;-85
2022/07/14 09:33:01;;;;;;;10.48;3.00;;;;;;;22.48;48.31;101821.56;5134558;28;20123;-85
2022/07/14 09:35:38;;;;;;;10.10;2.70;;;;;;;22.50;46.84;101831.25;5116304;28;20379;-85
2022/07/14 09:38:22;;;;;;;6.83;2.70;;;;;;;22.62;48.27;101831.00;5115788;28;20062;-85
2022/07/14 09:40:49;;;;;;;7.82;2.40;;;;;;;22.72;45.95;101831.03;5116503;28;20028;-85
2022/07/14 09:43:16;;;;;;;6.93;2.55;;;;;;;22.83;45.26;101829.09;5115759;28;20050;-85
2022/07/14 09:45:49;;;;;;;7.07;2.08;;;;;;;23.21;45.33;101824.19;5134543;28;20031;-85
2022/07/14 09:48:23;;;;;;;8.48;2.75;;;;;;;23.57;44.22;101818.59;5116400;28;20027;-84
2022/07/14 09:51:01;;;;;;;8.33;2.90;;;;;;;23.80;44.10;101821.88;5115883;28;20043;-85
2022/07/14 09:53:30;;;;;;;8.75;2.38;;;;;;;24.34;43.02;101825.84;5102409;27;20455;-84
2022/07/14 09:56:07;;;;;;;8.60;2.35;;;;;;;24.83;42.61;101825.03;5119377;27;20023;-85
2022/07/14 09:58:54;;;;;;;4.88;2.10;;;;;;;25.36;42.45;101824.34;5120128;27;20118;-85
2022/07/14 10:01:21;;;;;;;8.43;2.58;;;;;;;25.86;39.47;101824.06;5120090;27;20027;-85
2022/07/14 10:03:50;;;;;;;7.40;2.27;;;;;;;26.25;37.68;101825.88;5120813;27;20023;-85
2022/07/14 10:06:17;;;;;;;6.32;2.00;;;;;;;26.54;36.88;101826.88;5119962;27;20031;-85
2022/07/14 10:08:49;;;;;;;5.93;1.75;;;;;;;27.05;34.82;101816.94;5103212;27;20482;-86
2022/07/14 10:11:15;;;;;;;6.95;1.88;;;;;;;27.47;32.81;101812.31;5138521;27;20035;-85
2022/07/14 10:13:40;;;;;;;7.03;1.95;;;;;;;27.65;32.31;101819.78;5120236;27;20060;-85
2022/07/14 10:16:06;;;;;;;4.47;1.90;;;;;;;27.78;32.49;101834.84;5102975;27;20023;-85
2022/07/14 10:18:35;;;;;;;8.20;2.30;;;;;;;27.97;32.96;101828.38;5120273;27;20076;-86
2022/07/14 10:21:04;;;;;;;6.63;2.35;;;;;;;28.05;32.24;101822.09;5120383;27;20031;-86
2022/07/14 10:23:30;;;;;;;5.17;2.23;;;;;;;27.98;32.95;101825.28;5138344;27;20069;-85
2022/07/14 10:25:58;;;;;;;5.65;2.40;;;;;;;28.03;32.77;101824.34;5086080;27;20054;-86
2022/07/14 10:28:24;;;;;;;5.53;2.33;;;;;;;27.94;32.88;101828.97;5138551;27;20031;-86
2022/07/14 10:31:11;;;;;;;3.50;1.80;;;;;;;27.88;32.49;101831.03;5102726;27;20122;-86
2022/07/14 10:34:18;;;;;;;7.22;2.17;;;;;;;27.98;33.26;101835.63;5138419;27;20035;-86
2022/07/14 10:36:51;;;;;;;7.22;1.92;;;;;;;28.25;32.77;101833.94;5119764;27;20445;-86
2022/07/14 10:39:33;;;;;;;6.00;2.03;;;;;;;28.51;32.91;101834.19;5137825;27;20031;-86
2022/07/14 10:42:36;;;;;;;5.67;2.17;;;;;;;28.63;32.57;101833.69;5119620;27;20114;-86
2022/07/14 10:45:03;;;;;;;9.38;2.47;;;;;;;28.81;31.59;101829.06;5119579;27;20025;-86
2022/07/14 10:47:48;;;;;;;6.10;2.20;;;;;;;29.15;33.51;101834.06;5119068;27;20026;-86
2022/07/14 10:50:18;;;;;;;6.63;2.08;;;;;;;29.11;30.76;101821.06;5119089;27;20031;-86
2022/07/14 10:53:00;;;;;;;10.13;2.38;;;;;;;29.49;31.56;101826.25;5120029;27;20027;-86
2022/07/14 10:55:28;;;;;;;6.60;2.13;;;;;;;29.52;31.16;101820.00;5119204;27;20486;-86
2022/07/14 10:58:04;;;;;;;7.97;2.25;;;;;;;29.54;30.65;101826.94;5119323;27;20387;-86
2022/07/14 11:00:47;;;;;;;4.82;2.03;;;;;;;29.29;31.20;101822.84;5137697;27;20023;-86
2022/07/14 11:03:33;;;;;;;7.03;2.00;;;;;;;29.14;32.18;101824.03;5137910;27;20027;-87
2022/07/14 11:06:08;;;;;;;4.40;2.22;;;;;;;29.25;31.44;101824.63;5119359;27;20081;-86
2022/07/14 11:08:38;;;;;;;6.93;2.30;;;;;;;29.15;30.00;101828.47;5119782;27;20031;-86
2022/07/14 11:11:08;;;;;;;6.13;2.17;;;;;;;29.18;30.42;101815.84;5118834;27;20038;-86
2022/07/14 11:13:55;;;;;;;8.80;2.20;;;;;;;29.49;30.43;101820.66;5137468;27;20019;-86
2022/07/14 11:16:47;;;;;;;5.35;2.28;;;;;;;30.01;31.68;101825.66;5118360;27;20038;-86
2022/07/14 11:19:37;;;;;;;4.30;2.10;;;;;;;30.49;30.00;101826.75;5118459;27;20034;-86
2022/07/14 11:22:11;;;;;;;9.57;2.30;;;;;;;31.09;29.23;101825.09;5118950;27;20070;-86
2022/07/14 11:24:48;;;;;;;5.63;2.17;;;;;;;31.45;27.95;101824.69;5136889;27;20037;-86
2022/07/14 11:27:38;;;;;;;5.28;2.50;;;;;;;32.30;28.44;101819.38;5118247;27;20110;-86
2022/07/14 11:30:18;;;;;;;6.50;2.33;;;;;;;34.20;25.64;101816.84;5136467;27;20019;-86
2022/07/14 11:32:43;;;;;;;6.63;2.50;;;;;;;34.51;24.02;101800.50;5118136;27;20122;-86
2022/07/14 11:38:01;;;;;;;8.13;2.70;;;;;;;37.10;21.17;101801.13;5122044;27;20244;-86